Time;durP1;ratioP1;P1;durP2;ratioP2;P2;SDS_P1;SDS_P2;PMS_P1;PMS_P2;Temp;Humidity;BMP_temperature;BMP_pressure;BME280_temperature;BME280_humidity;BME280_pressure;Samples;Min_cycle;Max_cycle;Signal;HPM_P1;HPM_P2
2021/03/02 00:00:41;;;;;;;;;23.10;20.50;;;;;4.32;65.65;101943.95;476780;112;383139;-70
2021/03/02 00:01:46;;;;;;;;;27.10;23.00;;;;;4.30;65.48;101935.24;473970;114;386116;-71
2021/03/02 00:02:50;;;;;;;;;24.00;21.80;;;;;4.23;65.74;101932.78;479679;112;382702;-72
2021/03/02 00:03:54;;;;;;;;;29.60;20.80;;;;;4.23;65.74;101932.78;477904;112;391491;-74
2021/03/02 00:04:57;;;;;;;;;24.20;21.10;;;;;4.21;65.97;101924.05;479958;112;384410;-72
2021/03/02 00:06:01;;;;;;;;;22.60;19.20;;;;;4.21;66.08;101923.20;479215;112;387038;-73
2021/03/02 00:07:05;;;;;;;;;24.50;21.90;;;;;4.17;66.01;101922.42;477655;112;391921;-73
2021/03/02 00:08:09;;;;;;;;;24.20;18.90;;;;;4.18;66.15;101932.03;479891;112;383645;-72
2021/03/02 00:09:13;;;;;;;;;19.50;16.80;;;;;4.19;66.04;101922.37;480032;112;379900;-72
2021/03/02 00:10:18;;;;;;;;;21.20;20.00;;;;;4.19;66.04;101922.37;480226;112;382857;-74
2021/03/02 00:11:21;;;;;;;;;25.50;23.60;;;;;4.19;66.15;101927.63;482243;112;383382;-73
2021/03/02 00:12:25;;;;;;;;;25.50;24.00;;;;;4.20;66.03;101921.47;477763;112;383479;-72
2021/03/02 00:13:29;;;;;;;;;27.70;18.10;;;;;4.23;66.03;101918.75;482221;112;383304;-72
2021/03/02 00:14:33;;;;;;;;;18.90;16.40;;;;;4.23;66.03;101918.75;481795;112;382683;-73
2021/03/02 00:15:37;;;;;;;;;24.60;18.60;;;;;4.24;66.02;101921.32;478331;112;382533;-70
2021/03/02 00:16:43;;;;;;;;;24.70;23.00;;;;;4.24;66.02;101921.32;477765;112;382944;-71
2021/03/02 00:17:48;;;;;;;;;22.50;20.20;;;;;4.24;65.83;101916.05;475828;113;383281;-71
2021/03/02 00:18:55;;;;;;;;;22.20;20.60;;;;;4.22;66.12;101912.61;476719;112;382953;-71
2021/03/02 00:20:06;;;;;;;;;22.20;19.90;;;;;4.20;65.88;101917.08;479162;112;382949;-69
2021/03/02 00:21:13;;;;;;;;;25.50;21.00;;;;;4.20;65.88;101917.08;479799;112;383754;-71
2021/03/02 00:22:22;;;;;;;;;26.60;22.20;;;;;4.19;65.84;101919.73;477775;112;382514;-70
2021/03/02 00:23:27;;;;;;;;;28.00;23.80;;;;;4.00;66.65;101918.52;473455;114;382863;-71
2021/03/02 00:24:33;;;;;;;;;23.30;18.40;;;;;4.00;66.65;101918.52;478439;112;381999;-68
2021/03/02 00:25:37;;;;;;;;;28.30;26.00;;;;;4.01;66.69;101917.63;475438;112;383949;-72
2021/03/02 00:26:44;;;;;;;;;25.20;19.70;;;;;4.03;66.53;101910.53;478175;112;382315;-69
2021/03/02 00:27:48;;;;;;;;;24.50;22.40;;;;;4.07;66.50;101912.19;480390;112;389465;-71
2021/03/02 00:28:52;;;;;;;;;30.50;24.20;;;;;4.08;66.10;101911.29;479566;112;383832;-70
2021/03/02 00:29:55;;;;;;;;;23.20;21.60;;;;;4.08;66.26;101914.79;477788;112;391716;-70
2021/03/02 00:31:01;;;;;;;;;30.80;23.00;;;;;4.14;66.12;101906.72;471555;115;383215;-72
2021/03/02 00:32:05;;;;;;;;;23.50;18.20;;;;;4.14;66.12;101906.72;471320;112;381493;-71
2021/03/02 00:33:09;;;;;;;;;23.30;20.80;;;;;4.11;66.08;101908.56;479238;112;382780;-72
2021/03/02 00:34:13;;;;;;;;;21.70;19.50;;;;;4.07;66.18;101913.05;471234;114;384706;-71
2021/03/02 00:35:17;;;;;;;;;26.50;23.00;;;;;4.07;66.18;101913.05;472923;114;383475;-70
2021/03/02 00:36:22;;;;;;;;;28.70;22.20;;;;;3.98;66.24;101909.81;482298;112;384360;-72
2021/03/02 00:37:25;;;;;;;;;24.40;21.70;;;;;3.97;66.60;101906.31;475279;113;388861;-71
2021/03/02 00:38:30;;;;;;;;;21.00;19.70;;;;;3.97;66.60;101906.31;482359;112;384455;-71
2021/03/02 00:39:33;;;;;;;;;25.80;21.40;;;;;3.99;66.65;101893.95;479967;112;383628;-71
2021/03/02 00:40:38;;;;;;;;;24.80;22.90;;;;;3.97;66.71;101895.78;478362;112;383850;-71
2021/03/02 00:41:44;;;;;;;;;24.70;22.10;;;;;4.00;66.61;101895.70;477276;112;386870;-70
2021/03/02 00:42:48;;;;;;;;;24.90;23.30;;;;;4.02;66.38;101896.50;477335;112;383399;-71
2021/03/02 00:43:53;;;;;;;;;29.80;23.00;;;;;4.11;65.77;101898.91;480360;112;383727;-71
2021/03/02 00:44:57;;;;;;;;;24.30;21.00;;;;;4.10;65.79;101891.91;475392;112;383150;-74
2021/03/02 00:46:01;;;;;;;;;23.30;20.10;;;;;4.10;65.79;101891.91;480616;112;383046;-73
2021/03/02 00:47:05;;;;;;;;;30.10;24.10;;;;;4.12;65.81;101895.34;477646;112;383256;-74
2021/03/02 00:48:11;;;;;;;;;27.50;24.60;;;;;4.14;65.84;101890.05;479787;112;383760;-74
2021/03/02 00:49:15;;;;;;;;;24.50;21.80;;;;;4.16;65.66;101890.86;477902;112;383509;-74
2021/03/02 00:50:21;;;;;;;;;24.50;24.40;;;;;4.16;65.66;101890.86;480096;112;383242;-74
2021/03/02 00:51:25;;;;;;;;;29.70;24.40;;;;;4.17;65.44;101888.20;475326;113;384074;-72
2021/03/02 00:52:29;;;;;;;;;27.90;25.00;;;;;4.21;65.24;101892.45;478194;112;390685;-74
2021/03/02 00:53:33;;;;;;;;;27.00;23.20;;;;;4.21;65.24;101892.45;470786;114;383763;-73
2021/03/02 00:54:37;;;;;;;;;23.80;20.60;;;;;4.22;65.03;101881.02;470936;114;383078;-73
2021/03/02 00:55:41;;;;;;;;;28.90;23.90;;;;;4.22;65.03;101881.02;484309;112;384009;-75
2021/03/02 00:56:46;;;;;;;;;23.60;22.80;;;;;4.19;65.10;101875.84;479051;112;389376;-72
2021/03/02 00:57:50;;;;;;;;;27.40;23.90;;;;;4.11;65.55;101888.38;481662;112;383524;-71
2021/03/02 00:58:56;;;;;;;;;23.60;22.20;;;;;4.10;65.67;101886.64;480628;112;386735;-72
2021/03/02 00:59:59;;;;;;;;;28.80;24.60;;;;;4.08;65.61;101879.70;477934;112;383980;-71
2021/03/02 01:01:04;;;;;;;;;29.30;24.50;;;;;4.09;65.64;101884.03;481939;111;383525;-73
2021/03/02 01:02:09;;;;;;;;;28.70;24.70;;;;;4.09;65.64;101884.03;482351;111;382791;-72
2021/03/02 01:03:13;;;;;;;;;23.00;21.50;;;;;4.11;65.83;101883.11;480021;111;384000;-71
2021/03/02 01:04:17;;;;;;;;;29.80;23.40;;;;;4.15;65.70;101879.45;481880;111;384526;-73
2021/03/02 01:05:21;;;;;;;;;30.50;23.90;;;;;4.15;65.70;101879.45;482601;111;390839;-72
2021/03/02 01:06:26;;;;;;;;;29.60;25.30;;;;;4.11;65.89;101877.84;479037;111;384075;-72
2021/03/02 01:07:31;;;;;;;;;26.80;23.70;;;;;4.12;65.89;101873.41;480905;111;389675;-73
2021/03/02 01:08:35;;;;;;;;;24.00;21.20;;;;;4.12;65.89;101873.41;481356;111;382716;-72
2021/03/02 01:09:40;;;;;;;;;21.00;19.60;;;;;4.13;65.88;101873.38;481745;111;383931;-74
2021/03/02 01:10:46;;;;;;;;;31.30;25.10;;;;;4.11;65.68;101866.44;472345;114;394568;-74
2021/03/02 01:11:50;;;;;;;;;31.90;21.60;;;;;4.11;65.79;101869.95;472752;112;384433;-74
2021/03/02 01:12:54;;;;;;;;;31.40;24.80;;;;;4.06;65.95;101869.19;474224;114;382794;-74
2021/03/02 01:13:58;;;;;;;;;28.60;23.50;;;;;4.06;65.95;101869.19;470681;114;383320;-75
2021/03/02 01:15:03;;;;;;;;;27.60;22.80;;;;;4.04;65.96;101863.13;480737;111;383834;-76
2021/03/02 01:16:07;;;;;;;;;32.30;24.50;;;;;4.06;65.97;101865.69;476989;112;384707;-74
2021/03/02 01:17:11;;;;;;;;;27.60;23.60;;;;;4.09;65.78;101862.97;481542;111;383490;-73
2021/03/02 01:18:15;;;;;;;;;27.40;23.80;;;;;4.09;65.78;101862.97;480100;111;383915;-72
2021/03/02 01:19:19;;;;;;;;;26.10;21.00;;;;;4.11;65.81;101859.41;481830;111;382736;-73
2021/03/02 01:20:25;;;;;;;;;28.10;22.80;;;;;4.14;65.92;101867.22;479459;111;384401;-73
2021/03/02 01:21:29;;;;;;;;;30.80;22.80;;;;;4.19;65.53;101862.67;480356;111;384867;-72
2021/03/02 01:22:33;;;;;;;;;25.80;20.20;;;;;4.14;65.33;101861.95;477364;112;382469;-71
2021/03/02 01:23:37;;;;;;;;;20.10;19.00;;;;;4.14;65.33;101861.95;479898;111;382566;-70
2021/03/02 01:24:41;;;;;;;;;30.10;28.10;;;;;4.07;65.46;101865.66;484367;111;385044;-72
2021/03/02 01:25:48;;;;;;;;;32.30;28.60;;;;;4.02;65.71;101870.18;476727;112;385410;-72
2021/03/02 01:26:53;;;;;;;;;32.00;25.80;;;;;4.02;65.71;101870.18;480648;111;390567;-72
2021/03/02 01:27:56;;;;;;;;;34.60;29.30;;;;;4.03;65.80;101865.78;481437;111;385640;-73
2021/03/02 01:29:00;;;;;;;;;25.70;23.20;;;;;4.05;65.93;101862.19;480092;111;389459;-74
2021/03/02 01:30:07;;;;;;;;;32.50;27.80;;;;;4.02;65.77;101851.75;478482;111;386429;-72
2021/03/02 01:31:11;;;;;;;;;30.40;26.50;;;;;4.02;65.77;101851.75;482794;111;383389;-70
2021/03/02 01:32:15;;;;;;;;;34.10;29.10;;;;;4.07;65.96;101860.40;479550;111;383993;-70
2021/03/02 01:33:19;;;;;;;;;29.70;24.30;;;;;4.09;65.36;101849.81;480553;111;384174;-70
2021/03/02 01:34:22;;;;;;;;;29.50;22.80;;;;;4.09;65.36;101849.81;480514;111;390529;-71
2021/03/02 01:35:26;;;;;;;;;32.10;28.30;;;;;4.07;65.47;101849.00;477472;112;385951;-72
2021/03/02 01:36:32;;;;;;;;;33.30;26.50;;;;;4.09;65.48;101853.30;479375;111;383908;-74
2021/03/02 01:37:36;;;;;;;;;29.10;23.30;;;;;4.09;65.48;101853.30;480525;111;382094;-72
2021/03/02 01:38:40;;;;;;;;;35.10;28.10;;;;;4.11;65.74;101848.88;481802;111;385018;-72
2021/03/02 01:39:44;;;;;;;;;26.80;23.90;;;;;4.11;65.57;101845.38;480573;111;383051;-73
2021/03/02 01:40:48;;;;;;;;;25.20;20.80;;;;;4.11;65.53;101851.52;479057;111;383818;-72
2021/03/02 01:41:53;;;;;;;;;31.00;25.00;;;;;4.11;64.92;101838.35;480334;111;383828;-73
2021/03/02 01:42:57;;;;;;;;;27.90;25.70;;;;;4.11;64.92;101838.35;483105;111;383189;-71
2021/03/02 01:44:00;;;;;;;;;32.70;27.80;;;;;4.12;65.11;101844.45;480878;111;391637;-72
2021/03/02 01:45:07;;;;;;;;;33.10;26.40;;;;;4.14;65.46;101846.16;483272;111;383976;-72
2021/03/02 01:46:11;;;;;;;;;38.40;30.20;;;;;4.14;65.46;101846.16;481281;111;390665;-72
2021/03/02 01:47:15;;;;;;;;;34.50;30.10;;;;;4.14;65.29;101847.92;480380;111;385970;-71
2021/03/02 01:48:19;;;;;;;;;31.20;27.10;;;;;4.14;65.47;101845.29;479937;111;385984;-70
2021/03/02 01:49:23;;;;;;;;;33.00;28.60;;;;;4.13;65.17;101847.05;483059;111;384778;-70
2021/03/02 01:50:29;;;;;;;;;30.80;25.00;;;;;4.10;65.52;101844.52;479469;112;384347;-71
2021/03/02 01:51:33;;;;;;;;;32.50;27.90;;;;;4.04;65.57;101847.33;473137;114;385248;-71
2021/03/02 01:52:37;;;;;;;;;31.10;26.30;;;;;4.04;65.51;101842.06;471541;114;389661;-71
2021/03/02 01:53:41;;;;;;;;;33.70;31.70;;;;;4.04;65.51;101842.06;479254;111;386603;-71
2021/03/02 01:54:45;;;;;;;;;30.20;27.20;;;;;3.97;65.70;101837.88;474914;114;384170;-72
2021/03/02 01:55:48;;;;;;;;;33.80;28.50;;;;;3.97;65.70;101837.88;479552;111;385192;-69
2021/03/02 01:56:53;;;;;;;;;25.00;22.20;;;;;3.98;65.60;101839.61;480530;111;382969;-69
2021/03/02 01:57:56;;;;;;;;;28.60;24.20;;;;;3.98;65.41;101842.23;482472;111;383554;-71
2021/03/02 01:59:00;;;;;;;;;28.10;23.40;;;;;4.01;65.31;101838.65;477181;114;383101;-68
2021/03/02 02:00:11;;;;;;;;;27.70;22.60;;;;;4.01;65.37;101844.78;485179;111;390303;-69
2021/03/02 02:01:18;;;;;;;;;31.10;26.30;;;;;4.01;65.37;101844.78;480036;111;384551;-69
2021/03/02 02:02:26;;;;;;;;;30.30;23.90;;;;;4.06;65.24;101844.63;476547;113;383647;-70
2021/03/02 02:03:34;;;;;;;;;24.20;19.30;;;;;4.08;65.05;101845.47;475113;115;382982;-70
2021/03/02 02:04:41;;;;;;;;;27.90;25.10;;;;;4.08;64.91;101843.70;477604;113;391198;-69
2021/03/02 02:05:47;;;;;;;;;32.70;26.10;;;;;4.08;64.91;101843.70;473976;114;383904;-69
2021/03/02 02:06:55;;;;;;;;;27.10;25.40;;;;;4.08;64.72;101845.47;477126;113;384025;-69
2021/03/02 02:08:00;;;;;;;;;32.50;25.60;;;;;4.08;64.72;101845.47;477561;113;386248;-70
2021/03/02 02:09:08;;;;;;;;;27.70;24.30;;;;;4.06;64.41;101848.13;476366;113;383821;-68
2021/03/02 02:10:14;;;;;;;;;26.90;23.10;;;;;4.06;64.51;101848.13;474812;114;388591;-69
2021/03/02 02:11:29;;;;;;;;;32.40;25.90;;;;;4.07;64.50;101844.60;476813;113;385155;-70
2021/03/02 02:12:36;;;;;;;;;30.00;23.40;;;;;4.07;64.50;101844.60;475832;113;383970;-68
2021/03/02 02:13:41;;;;;;;;;30.00;27.10;;;;;4.06;64.38;101842.00;480285;113;384179;-69
2021/03/02 02:14:46;;;;;;;;;30.20;27.90;;;;;4.06;64.38;101842.00;476538;114;384980;-68
2021/03/02 02:15:50;;;;;;;;;26.10;23.70;;;;;3.98;64.76;101846.63;477519;113;383551;-68
2021/03/02 02:16:56;;;;;;;;;31.00;25.00;;;;;3.98;64.76;101846.63;477449;114;383811;-68
2021/03/02 02:18:02;;;;;;;;;27.80;23.60;;;;;3.93;64.83;101838.86;476660;113;383675;-68
2021/03/02 02:19:06;;;;;;;;;26.40;23.00;;;;;3.88;65.11;101848.66;473768;113;388684;-70
2021/03/02 02:20:11;;;;;;;;;28.10;24.70;;;;;3.79;65.76;101838.40;477161;113;385072;-68
2021/03/02 02:21:21;;;;;;;;;28.10;25.30;;;;;3.79;65.76;101838.40;477587;113;383952;-69
2021/03/02 02:22:31;;;;;;;;;24.30;23.30;;;;;3.78;65.52;101835.80;473307;114;389810;-68
2021/03/02 02:23:41;;;;;;;;;27.20;22.20;;;;;3.78;65.61;101836.66;477178;113;382269;-69
2021/03/02 02:24:50;;;;;;;;;30.70;24.70;;;;;3.80;65.39;101842.73;473813;114;383537;-70
2021/03/02 02:25:57;;;;;;;;;28.10;23.40;;;;;3.81;65.20;101838.34;477118;113;389036;-71
2021/03/02 02:27:01;;;;;;;;;27.10;25.20;;;;;3.79;65.46;101837.53;478053;113;384384;-70
2021/03/02 02:28:05;;;;;;;;;29.60;26.60;;;;;3.79;65.44;101845.42;477335;113;391182;-69
2021/03/02 02:29:09;;;;;;;;;26.80;23.60;;;;;3.79;65.44;101845.42;475621;115;385919;-71
2021/03/02 02:30:16;;;;;;;;;28.90;25.90;;;;;3.76;65.38;101843.75;477299;113;383747;-71
2021/03/02 02:31:20;;;;;;;;;24.90;23.50;;;;;3.74;65.84;101842.91;476829;113;383275;-69
2021/03/02 02:32:24;;;;;;;;;21.20;20.40;;;;;3.74;65.84;101842.91;478500;113;380985;-73
2021/03/02 02:33:30;;;;;;;;;28.30;24.00;;;;;3.69;65.92;101842.19;474555;113;390690;-71
2021/03/02 02:34:35;;;;;;;;;30.80;26.00;;;;;3.69;65.83;101840.42;477545;113;391254;-72
2021/03/02 02:35:39;;;;;;;;;32.40;27.60;;;;;3.70;65.99;101836.86;476707;113;383926;-75
2021/03/02 02:36:45;;;;;;;;;28.00;25.20;;;;;3.70;65.99;101836.86;478648;113;384559;-75
2021/03/02 02:37:49;;;;;;;;;30.90;26.20;;;;;3.72;66.09;101834.20;474624;114;390239;-75
2021/03/02 02:38:55;;;;;;;;;27.80;24.90;;;;;3.77;65.91;101834.92;477753;113;384443;-75
2021/03/02 02:39:59;;;;;;;;;30.20;27.30;;;;;3.80;65.84;101829.58;477959;113;384429;-75
2021/03/02 02:41:03;;;;;;;;;30.80;26.30;;;;;3.80;65.84;101829.58;476447;113;384279;-74
2021/03/02 02:42:07;;;;;;;;;27.60;24.90;;;;;3.81;65.60;101830.45;473980;114;382612;-74
2021/03/02 02:43:11;;;;;;;;;24.20;21.20;;;;;3.82;65.54;101830.42;477853;113;383137;-74
2021/03/02 02:44:15;;;;;;;;;30.10;27.70;;;;;3.80;65.28;101829.58;477547;113;392352;-73
2021/03/02 02:45:19;;;;;;;;;29.30;25.60;;;;;3.74;65.56;101824.48;476752;114;384188;-73
2021/03/02 02:46:25;;;;;;;;;29.60;24.40;;;;;3.74;65.56;101824.48;478386;113;383826;-74
2021/03/02 02:47:29;;;;;;;;;19.20;18.50;;;;;3.74;65.58;101824.48;478795;113;381668;-73
2021/03/02 02:48:33;;;;;;;;;33.80;27.30;;;;;3.70;65.72;101820.24;477697;113;392543;-73
2021/03/02 02:49:37;;;;;;;;;31.60;28.70;;;;;3.70;65.72;101820.24;477496;113;385761;-72
2021/03/02 02:50:43;;;;;;;;;33.30;29.10;;;;;3.70;65.67;101822.88;478192;113;385798;-71
2021/03/02 02:51:47;;;;;;;;;32.80;30.60;;;;;3.69;65.72;101816.74;473833;114;385807;-72
2021/03/02 02:52:50;;;;;;;;;28.80;26.10;;;;;3.64;65.93;101810.73;477469;113;392599;-72
2021/03/02 02:53:54;;;;;;;;;26.60;25.70;;;;;3.64;65.93;101810.73;477901;113;385048;-72
2021/03/02 02:54:58;;;;;;;;;25.50;23.40;;;;;3.62;66.15;101815.18;477152;113;388992;-73
2021/03/02 02:56:03;;;;;;;;;26.90;23.60;;;;;3.62;66.16;101809.91;478729;113;383774;-71
2021/03/02 02:57:07;;;;;;;;;20.80;17.90;;;;;3.57;66.18;101819.69;474551;114;382536;-73
2021/03/02 02:58:12;;;;;;;;;32.90;28.60;;;;;3.57;66.18;101819.69;478237;113;384617;-72
2021/03/02 02:59:18;;;;;;;;;28.40;23.00;;;;;3.56;66.13;101820.61;478015;113;384230;-73
2021/03/02 03:00:24;;;;;;;;;28.70;26.70;;;;;3.50;66.04;101820.78;476246;113;384170;-75
2021/03/02 03:01:29;;;;;;;;;30.10;27.50;;;;;3.43;66.24;101823.60;474575;112;385299;-74
2021/03/02 03:02:33;;;;;;;;;33.50;28.10;;;;;3.38;66.57;101829.00;477364;113;384607;-73
2021/03/02 03:03:37;;;;;;;;;30.90;26.30;;;;;3.38;66.57;101829.00;476479;114;384976;-73
2021/03/02 03:04:42;;;;;;;;;30.70;28.70;;;;;3.32;66.99;101836.19;478531;113;384334;-74
2021/03/02 03:05:47;;;;;;;;;30.70;27.70;;;;;3.32;66.99;101836.19;473470;114;385744;-74
2021/03/02 03:06:53;;;;;;;;;36.80;31.00;;;;;3.25;67.54;101832.85;477284;113;390751;-72
2021/03/02 03:07:58;;;;;;;;;31.70;28.40;;;;;3.25;67.54;101832.85;477754;113;384191;-72
2021/03/02 03:09:02;;;;;;;;;41.20;31.10;;;;;3.18;68.03;101833.91;476119;113;386753;-71
2021/03/02 03:10:08;;;;;;;;;41.20;34.70;;;;;3.18;68.03;101833.91;473623;114;386622;-72
2021/03/02 03:11:12;;;;;;;;;29.70;23.30;;;;;3.13;68.07;101831.38;477370;113;385136;-72
2021/03/02 03:12:16;;;;;;;;;31.00;27.10;;;;;3.07;68.07;101828.91;478008;113;385483;-73
2021/03/02 03:13:21;;;;;;;;;36.30;31.70;;;;;3.13;68.10;101827.88;478018;113;392384;-71
2021/03/02 03:14:25;;;;;;;;;27.60;24.20;;;;;3.09;68.01;101827.13;474932;114;382516;-71
2021/03/02 03:15:30;;;;;;;;;26.30;24.10;;;;;3.09;67.92;101829.75;477714;113;383999;-71
2021/03/02 03:16:35;;;;;;;;;29.30;27.10;;;;;3.05;67.99;101830.72;476707;113;384276;-71
2021/03/02 03:17:41;;;;;;;;;28.10;25.00;;;;;3.05;67.99;101830.72;477903;113;382903;-70
2021/03/02 03:18:46;;;;;;;;;29.00;23.80;;;;;3.11;67.69;101830.56;476457;113;382527;-72
2021/03/02 03:19:50;;;;;;;;;28.30;25.90;;;;;3.19;67.37;101825.12;474649;113;382318;-71
2021/03/02 03:20:54;;;;;;;;;35.90;31.50;;;;;3.19;67.37;101825.12;477747;113;386146;-71
2021/03/02 03:21:58;;;;;;;;;33.10;25.00;;;;;3.23;67.14;101816.23;477121;113;384086;-71
2021/03/02 03:23:02;;;;;;;;;26.60;21.20;;;;;3.16;67.28;101825.17;477883;113;383366;-72
2021/03/02 03:24:08;;;;;;;;;29.20;26.10;;;;;3.15;67.67;101816.45;469482;115;383648;-71
2021/03/02 03:25:14;;;;;;;;;27.80;23.00;;;;;3.15;67.67;101816.45;477109;114;383843;-70
2021/03/02 03:26:21;;;;;;;;;22.70;18.20;;;;;3.15;67.35;101811.20;477381;113;383992;-72
2021/03/02 03:27:25;;;;;;;;;27.67;23.11;;;;;3.15;67.35;101811.20;476861;113;386269;-71
2021/03/02 03:28:29;;;;;;;;;24.10;20.30;;;;;3.17;67.00;101804.12;474586;114;384331;-71
2021/03/02 03:29:33;;;;;;;;;28.80;26.90;;;;;3.17;67.00;101804.12;478275;113;385642;-71
2021/03/02 03:30:37;;;;;;;;;32.40;27.30;;;;;3.23;67.17;101804.84;477894;113;387110;-70
2021/03/02 03:31:41;;;;;;;;;31.70;24.90;;;;;3.24;67.35;101806.59;477662;113;385978;-69
2021/03/02 03:32:46;;;;;;;;;29.50;26.20;;;;;3.24;67.38;101801.33;478453;113;383468;-70
2021/03/02 03:33:50;;;;;;;;;35.50;28.80;;;;;3.21;67.27;101804.91;474441;113;386079;-71
2021/03/02 03:34:53;;;;;;;;;35.30;29.20;;;;;3.20;67.01;101804.04;477543;113;384599;-70
2021/03/02 03:35:57;;;;;;;;;32.20;28.90;;;;;3.16;67.14;101802.38;477276;113;385290;-71
2021/03/02 03:37:01;;;;;;;;;32.20;28.20;;;;;3.09;67.36;101800.84;478332;113;385833;-70
2021/03/02 03:38:05;;;;;;;;;26.00;20.90;;;;;3.09;67.36;101800.84;476835;114;384073;-71
2021/03/02 03:39:09;;;;;;;;;30.10;24.40;;;;;3.01;67.42;101809.80;476958;114;383521;-70
2021/03/02 03:40:15;;;;;;;;;30.60;25.30;;;;;3.01;67.42;101809.80;477619;113;383785;-71
2021/03/02 03:41:19;;;;;;;;;32.30;28.60;;;;;3.01;67.58;101808.03;476784;113;384626;-71
2021/03/02 03:42:23;;;;;;;;;33.00;29.80;;;;;2.94;67.65;101806.45;478718;113;387846;-71
2021/03/02 03:43:27;;;;;;;;;35.30;27.20;;;;;2.97;67.91;101806.37;473401;114;385124;-72
2021/03/02 03:44:31;;;;;;;;;30.50;25.90;;;;;2.97;67.91;101806.37;477830;113;383820;-70
2021/03/02 03:45:34;;;;;;;;;15.70;10.10;;;;;3.05;67.85;101796.55;477479;113;378018;-70
2021/03/02 03:46:39;;;;;;;;;32.10;26.00;;;;;3.05;67.85;101796.55;477195;113;390019;-69
2021/03/02 03:47:42;;;;;;;;;30.30;26.40;;;;;2.99;67.68;101795.84;477611;113;383135;-70
2021/03/02 03:48:46;;;;;;;;;30.70;28.00;;;;;2.94;67.67;101795.95;474401;114;389841;-69
2021/03/02 03:49:50;;;;;;;;;33.90;27.90;;;;;2.94;67.67;101795.95;477826;113;385738;-69
2021/03/02 03:50:54;;;;;;;;;22.60;17.20;;;;;2.92;67.98;101807.41;477279;113;382612;-68
2021/03/02 03:51:58;;;;;;;;;28.90;25.70;;;;;2.93;68.05;101802.13;477749;113;387048;-70
2021/03/02 03:53:03;;;;;;;;;27.20;25.60;;;;;2.92;68.04;101795.13;477779;113;383416;-69
2021/03/02 03:54:07;;;;;;;;;31.20;26.30;;;;;2.95;67.90;101809.95;465128;116;389497;-69
2021/03/02 03:55:13;;;;;;;;;26.50;22.40;;;;;2.95;67.90;101809.95;468852;116;384618;-69
2021/03/02 03:56:18;;;;;;;;;28.20;24.80;;;;;2.91;68.15;101798.66;477459;113;383120;-68
2021/03/02 03:57:22;;;;;;;;;33.50;25.40;;;;;2.85;68.37;101798.80;477566;113;383803;-70
2021/03/02 03:58:28;;;;;;;;;30.40;25.90;;;;;2.85;68.37;101798.80;473865;114;383947;-69
2021/03/02 03:59:32;;;;;;;;;30.60;24.10;;;;;2.86;68.15;101811.05;481367;113;383727;-69
2021/03/02 04:00:38;;;;;;;;;31.00;26.60;;;;;2.87;68.11;101807.50;480896;113;385759;-68
2021/03/02 04:01:42;;;;;;;;;13.40;7.70;;;;;2.87;68.11;101807.50;478370;113;375490;-71
2021/03/02 04:02:46;;;;;;;;;23.80;20.70;;;;;2.87;68.14;101810.13;474913;114;384867;-69
2021/03/02 04:03:50;;;;;;;;;21.90;19.40;;;;;2.85;68.15;101800.56;475848;114;382452;-69
2021/03/02 04:04:53;;;;;;;;;29.40;24.90;;;;;2.85;68.15;101800.56;476896;114;387013;-68
2021/03/02 04:05:58;;;;;;;;;28.20;23.40;;;;;2.83;68.25;101805.88;476956;114;382846;-69
2021/03/02 04:07:02;;;;;;;;;28.20;23.50;;;;;2.79;68.48;101801.59;476774;114;383356;-71
2021/03/02 04:08:07;;;;;;;;;26.50;22.80;;;;;2.82;68.40;101804.14;473690;114;383621;-70
2021/03/02 04:09:11;;;;;;;;;26.50;22.90;;;;;2.92;67.97;101804.78;476103;114;389232;-70
2021/03/02 04:10:16;;;;;;;;;29.70;26.80;;;;;2.92;67.97;101804.78;476580;114;382873;-71
2021/03/02 04:11:20;;;;;;;;;24.80;22.30;;;;;2.94;67.83;101798.58;475089;114;389879;-70
2021/03/02 04:12:24;;;;;;;;;24.10;22.20;;;;;3.00;67.50;101802.84;477056;114;382901;-69
2021/03/02 04:13:28;;;;;;;;;30.70;26.80;;;;;3.00;67.50;101802.84;472764;114;384346;-71
2021/03/02 04:14:32;;;;;;;;;25.40;23.50;;;;;3.02;67.42;101801.02;477231;114;383891;-73
2021/03/02 04:15:37;;;;;;;;;23.90;20.80;;;;;2.92;67.47;101808.27;475903;114;383253;-76
2021/03/02 04:16:42;;;;;;;;;26.40;23.20;;;;;2.92;67.47;101808.27;476134;114;384093;-77
2021/03/02 04:17:56;;;;;;;;;26.80;23.20;;;;;2.83;67.74;101803.25;472336;114;383404;-78
2021/03/02 04:18:59;;;;;;;;;22.90;17.50;;;;;2.79;68.12;101798.96;476697;114;382513;-76
2021/03/02 04:20:05;;;;;;;;;24.20;23.90;;;;;2.83;67.92;101805.88;475787;114;384323;-76
2021/03/02 04:21:08;;;;;;;;;24.70;22.90;;;;;2.83;67.92;101805.88;474542;114;383259;-77
2021/03/02 04:22:12;;;;;;;;;25.20;23.10;;;;;2.76;68.08;101812.17;475923;114;390782;-76
2021/03/02 04:23:16;;;;;;;;;20.80;13.80;;;;;2.76;68.08;101812.17;477384;114;380362;-75
2021/03/02 04:24:20;;;;;;;;;27.70;25.90;;;;;2.78;67.71;101810.36;476674;114;383142;-75
2021/03/02 04:25:24;;;;;;;;;31.00;25.70;;;;;2.75;68.08;101806.94;476691;114;383721;-75
2021/03/02 04:26:29;;;;;;;;;25.90;21.80;;;;;2.72;68.06;101805.25;472441;114;383135;-77
2021/03/02 04:27:33;;;;;;;;;22.10;19.70;;;;;2.72;68.06;101805.25;476659;114;388134;-75
2021/03/02 04:28:37;;;;;;;;;23.80;19.90;;;;;2.72;68.21;101807.88;478227;114;383738;-77
2021/03/02 04:29:41;;;;;;;;;26.70;18.90;;;;;2.75;68.03;101815.69;477325;114;381490;-75
2021/03/02 04:30:45;;;;;;;;;23.80;19.10;;;;;2.78;67.89;101815.61;479333;114;383041;-76
2021/03/02 04:31:49;;;;;;;;;22.40;19.00;;;;;2.78;67.89;101815.61;472675;114;382465;-75
2021/03/02 04:32:53;;;;;;;;;24.90;21.30;;;;;2.77;67.98;101815.67;476080;114;383115;-77
2021/03/02 04:33:57;;;;;;;;;23.90;17.70;;;;;2.76;68.01;101814.80;476030;114;388950;-71
2021/03/02 04:35:01;;;;;;;;;16.00;14.70;;;;;2.76;68.09;101816.55;476512;114;378977;-75
2021/03/02 04:36:07;;;;;;;;;28.30;23.10;;;;;2.80;68.27;101812.97;477243;114;382699;-72
2021/03/02 04:37:11;;;;;;;;;25.00;19.40;;;;;2.82;67.91;101814.65;466465;117;382517;-74
2021/03/02 04:38:15;;;;;;;;;16.82;11.00;;;;;2.82;67.91;101814.65;467117;117;378524;-73
2021/03/02 04:39:19;;;;;;;;;30.60;22.50;;;;;2.83;68.04;101807.63;474813;114;394800;-72
2021/03/02 04:40:24;;;;;;;;;21.10;19.90;;;;;2.83;68.04;101807.63;478642;114;382867;-72
2021/03/02 04:41:27;;;;;;;;;30.50;27.00;;;;;2.79;67.80;101809.47;474794;114;388286;-75
2021/03/02 04:42:32;;;;;;;;;27.00;20.10;;;;;2.79;67.80;101809.47;477517;114;383495;-73
2021/03/02 04:43:36;;;;;;;;;26.20;22.70;;;;;2.80;67.70;101808.58;475862;114;389509;-76
2021/03/02 04:44:39;;;;;;;;;23.20;19.80;;;;;2.80;67.91;101808.58;476366;114;383900;-73
2021/03/02 04:45:43;;;;;;;;;31.30;26.70;;;;;2.84;67.52;101810.20;477204;114;384006;-71
2021/03/02 04:46:47;;;;;;;;;26.10;22.00;;;;;2.84;67.52;101810.20;472855;114;383228;-71
2021/03/02 04:47:51;;;;;;;;;29.70;22.80;;;;;2.82;67.47;101814.65;474384;114;384563;-71
2021/03/02 04:48:55;;;;;;;;;19.20;14.90;;;;;2.69;67.79;101810.59;477401;114;381462;-72
2021/03/02 04:49:59;;;;;;;;;25.20;20.50;;;;;2.64;68.08;101815.09;476641;114;384679;-72
2021/03/02 04:51:05;;;;;;;;;27.00;24.70;;;;;2.62;68.49;101820.37;478260;114;384127;-74
2021/03/02 04:52:09;;;;;;;;;34.00;29.70;;;;;2.58;68.38;101812.62;472411;114;384767;-73
2021/03/02 04:53:12;;;;;;;;;35.00;28.70;;;;;2.58;68.38;101812.62;474884;114;385253;-75
2021/03/02 04:54:16;;;;;;;;;27.80;23.80;;;;;2.54;68.59;101814.45;472710;114;382783;-74